Time;durP1;ratioP1;P1;durP2;ratioP2;P2;SDS_P1;SDS_P2;PMS_P1;PMS_P2;Temp;Humidity;BMP_temperature;BMP_pressure;BME280_temperature;BME280_humidity;BME280_pressure;Samples;Min_cycle;Max_cycle;Signal;HPM_P1;HPM_P2
2023/03/03 00:01:02;;;;;;;;;14.00;12.75;;;;;11.41;89.97;101112.75;146615;594;46013;-74
2023/03/03 00:04:12;;;;;;;;;17.25;15.75;;;;;11.41;90.26;101113.62;146611;574;46012;-74
2023/03/03 00:07:07;;;;;;;;;21.50;16.25;;;;;11.42;90.22;101107.63;146615;580;46020;-74
2023/03/03 00:10:30;;;;;;;;;20.00;16.00;;;;;11.43;90.08;101112.03;146612;591;46013;-73
2023/03/03 00:13:34;;;;;;;;;26.75;20.50;;;;;11.46;90.42;101109.56;146615;595;46020;-77
2023/03/03 00:16:47;;;;;;;;;22.25;17.00;;;;;11.47;90.03;101115.69;146612;564;46017;-77
2023/03/03 00:20:00;;;;;;;;;28.75;22.75;;;;;11.46;90.16;101117.34;146614;623;46010;-77
2023/03/03 00:23:53;;;;;;;;;31.25;28.00;;;;;9.40;89.82;100743.91;146613;590;46017;-77
2023/03/03 00:27:35;;;;;;;;;26.50;23.75;;;;;11.48;89.80;101105.34;146611;603;46010;-77
2023/03/03 00:30:47;;;;;;;;;26.75;24.25;;;;;11.49;90.01;101098.44;146608;602;47012;-78
2023/03/03 00:34:11;;;;;;;;;22.75;22.75;;;;;11.48;89.95;101094.97;146615;576;46020;-76
2023/03/03 00:37:20;;;;;;;;;;;;;;;;;;;;;
2023/03/03 00:41:02;;;;;;;;;;;;;;;;;;;;;
2023/03/03 00:44:27;;;;;;;;;18.25;15.50;;;;;11.44;89.51;101090.44;146610;578;46014;-76
2023/03/03 00:47:52;;;;;;;;;23.25;18.00;;;;;9.35;89.59;100714.31;146614;687;46010;-77
2023/03/03 00:51:04;;;;;;;;;19.00;14.75;;;;;11.43;89.71;101073.06;146612;573;46016;-76
2023/03/03 00:54:00;;;;;;;;;18.25;14.50;;;;;11.40;89.75;101070.31;146614;567;46021;-76
2023/03/03 00:57:18;;;;;;;;;15.50;14.50;;;;;11.39;89.90;101072.81;146611;563;46012;-77
2023/03/03 01:00:43;;;;;;;;;17.75;16.50;;;;;11.35;89.67;101057.91;146613;564;46010;-77
2023/03/03 01:03:41;;;;;;;;;18.00;14.75;;;;;11.35;89.71;101063.97;146609;569;46016;-78
2023/03/03 01:06:44;;;;;;;;;19.75;15.75;;;;;11.34;89.59;101062.19;146612;606;46020;-72
2023/03/03 01:09:53;;;;;;;;;20.25;15.25;;;;;11.35;89.77;101066.56;146611;591;47012;-72
2023/03/03 01:12:48;;;;;;;;;23.50;16.75;;;;;11.34;89.71;101057.00;146615;601;46010;-72
2023/03/03 01:16:13;;;;;;;;;23.75;19.00;;;;;11.36;89.61;101057.97;146610;565;46912;-72
2023/03/03 01:19:15;;;;;;;;;18.00;16.00;;;;;11.36;90.07;101051.88;146614;573;46010;-73
2023/03/03 01:22:09;;;;;;;;;17.75;16.75;;;;;11.32;90.03;101059.50;146611;598;46012;-73
2023/03/03 01:25:14;;;;;;;;;18.50;14.25;;;;;11.30;90.16;101055.91;146613;615;47010;-72
2023/03/03 01:28:24;;;;;;;;;14.50;14.00;;;;;9.17;89.34;100685.72;146610;623;46036;-73
2023/03/03 01:31:38;;;;;;;;;18.75;16.25;;;;;11.31;90.22;101052.53;146614;606;46021;-69
2023/03/03 01:34:38;;;;;;;;;19.00;14.75;;;;;11.27;90.19;101041.88;146610;579;46016;-70
2023/03/03 01:37:34;;;;;;;;;14.00;13.00;;;;;11.31;90.20;101054.25;146613;627;46020;-71
2023/03/03 01:41:17;;;;;;;;;24.75;20.25;;;;;11.28;90.11;101049.78;146610;614;46016;-72
2023/03/03 01:44:42;;;;;;;;;26.00;22.25;;;;;11.28;89.78;101057.56;146613;579;46020;-72
2023/03/03 01:48:28;;;;;;;;;24.00;21.00;;;;;9.53;89.72;100748.97;146602;586;46012;-70
2023/03/03 01:51:41;;;;;;;;;31.50;26.25;;;;;11.27;90.12;101055.75;146608;574;46010;-71
2023/03/03 01:54:51;;;;;;;;;19.75;16.75;;;;;11.29;89.78;101053.25;146606;570;46012;-73
2023/03/03 01:58:09;;;;;;;;;20.00;16.50;;;;;11.30;90.29;101057.63;146607;614;47020;-70
2023/03/03 02:01:08;;;;;;;;;25.50;18.00;;;;;11.30;90.41;101050.72;146607;613;46017;-71
2023/03/03 02:04:05;;;;;;;;;24.00;23.75;;;;;11.33;90.40;101052.59;146605;631;46020;-71
2023/03/03 02:07:13;;;;;;;;;21.25;18.00;;;;;11.34;90.20;101075.19;146607;570;46912;-70
2023/03/03 02:10:20;;;;;;;;;23.75;21.25;;;;;11.35;89.98;101045.81;146608;581;47012;-72
2023/03/03 02:13:34;;;;;;;;;21.00;17.00;;;;;11.37;90.27;101051.97;146603;611;46913;-71
2023/03/03 02:16:26;;;;;;;;;25.25;22.50;;;;;11.38;89.96;101050.25;146609;634;46012;-70
2023/03/03 02:20:38;;;;;;;;;18.75;17.75;;;;;9.37;89.33;100697.16;146603;571;46914;-70
2023/03/03 02:24:24;;;;;;;;;19.25;15.50;;;;;10.64;89.26;100917.47;146611;576;46021;-72
2023/03/03 02:27:37;;;;;;;;;19.25;17.00;;;;;11.38;89.47;101047.66;146608;585;46018;-73
2023/03/03 02:30:43;;;;;;;;;19.25;18.75;;;;;11.36;89.47;101041.50;146608;615;46011;-71
2023/03/03 02:33:48;;;;;;;;;18.25;15.75;;;;;11.36;89.86;101047.56;146606;583;46016;-71
2023/03/03 02:36:50;;;;;;;;;16.00;14.75;;;;;11.37;89.70;101049.38;146603;586;46021;-72
2023/03/03 02:40:01;;;;;;;;;21.00;16.25;;;;;11.34;89.74;101044.03;146604;579;47012;-76
2023/03/03 02:43:19;;;;;;;;;19.75;19.50;;;;;9.45;89.05;100725.25;146610;565;46030;-77
2023/03/03 02:46:35;;;;;;;;;19.25;16.75;;;;;11.31;89.81;101047.34;146611;571;46012;-78
2023/03/03 02:49:51;;;;;;;;;18.25;17.00;;;;;11.33;90.17;101052.59;146619;603;46020;-78
2023/03/03 02:53:15;;;;;;;;;;;;;;;;;;;;;
2023/03/03 02:56:26;;;;;;;;;16.50;13.25;;;;;9.20;89.87;100679.00;146619;573;46010;-78
2023/03/03 02:59:22;;;;;;;;;14.75;13.25;;;;;11.35;90.29;101044.91;146613;627;46017;-78
2023/03/03 03:02:22;;;;;;;;;14.25;11.75;;;;;11.36;90.52;101047.56;146618;650;46020;-77
2023/03/03 03:05:34;;;;;;;;;15.00;13.00;;;;;11.36;89.93;101044.09;146617;589;46012;-78
2023/03/03 03:08:30;;;;;;;;;14.50;11.75;;;;;11.37;90.14;101048.47;146614;566;46032;-79
2023/03/03 03:11:45;;;;;;;;;12.50;10.75;;;;;11.38;89.91;101055.47;146617;654;46014;-75
2023/03/03 03:14:43;;;;;;;;;22.00;17.25;;;;;11.37;90.36;101049.38;146619;596;46010;-75
2023/03/03 03:17:56;;;;;;;;;17.75;14.50;;;;;11.37;89.60;101049.38;146615;590;46016;-75
2023/03/03 03:20:52;;;;;;;;;20.50;17.00;;;;;11.37;90.04;101040.66;146618;588;47010;-75
2023/03/03 03:24:06;;;;;;;;;;;;;;;;;;;;;
2023/03/03 03:27:08;;;;;;;;;12.75;11.75;;;;;11.34;89.95;101025.84;146617;666;46020;-73
2023/03/03 03:30:08;;;;;;;;;9.50;8.25;;;;;11.36;89.94;101029.41;146614;599;46013;-73
2023/03/03 03:33:01;;;;;;;;;8.25;7.50;;;;;11.33;89.69;101027.53;146621;572;46020;-72
2023/03/03 03:36:25;;;;;;;;;9.25;7.00;;;;;11.33;89.61;101022.34;146618;571;46016;-71
2023/03/03 03:39:39;;;;;;;;;12.25;9.50;;;;;9.41;89.20;100694.84;146619;678;46010;-72
2023/03/03 03:42:35;;;;;;;;;11.75;9.25;;;;;11.26;89.43;101024.53;146617;644;46015;-71
2023/03/03 03:45:31;;;;;;;;;9.00;8.00;;;;;11.20;89.28;101027.69;146623;606;46021;-72
2023/03/03 03:48:30;;;;;;;;;8.75;7.75;;;;;11.08;89.03;101020.13;146620;569;46014;-72
2023/03/03 03:51:30;;;;;;;;;10.25;8.50;;;;;11.02;88.96;101017.22;146622;569;46010;-73
2023/03/03 03:54:24;;;;;;;;;7.50;5.25;;;;;10.92;88.99;101027.91;146615;565;46016;-76
2023/03/03 03:57:24;;;;;;;;;6.50;6.50;;;;;10.85;88.85;101028.41;146619;597;46020;-73
2023/03/03 04:00:31;;;;;;;;;6.75;6.00;;;;;10.78;89.04;101034.06;146618;574;46917;-71
2023/03/03 04:03:40;;;;;;;;;7.75;6.50;;;;;10.73;89.37;101038.09;146623;563;46030;-73
2023/03/03 04:06:42;;;;;;;;;8.00;7.00;;;;;10.67;88.89;101037.75;146616;570;46017;-74
2023/03/03 04:09:44;;;;;;;;;14.00;12.00;;;;;10.63;89.55;101045.34;146620;574;46020;-73
2023/03/03 04:12:39;;;;;;;;;10.00;7.75;;;;;10.61;89.72;101046.06;146615;612;46016;-75
2023/03/03 04:15:45;;;;;;;;;10.50;8.25;;;;;10.61;89.69;101046.06;146620;581;46020;-74
2023/03/03 04:18:44;;;;;;;;;11.50;11.25;;;;;10.63;90.23;101040.16;146617;580;46012;-75
2023/03/03 04:21:43;;;;;;;;;10.00;9.00;;;;;10.71;90.38;101050.06;146621;622;46011;-69
2023/03/03 04:24:50;;;;;;;;;10.00;8.50;;;;;10.76;90.74;101046.03;146617;583;46012;-71
2023/03/03 04:27:56;;;;;;;;;12.00;9.50;;;;;8.76;90.27;100692.91;146618;571;47021;-70
2023/03/03 04:30:50;;;;;;;;;14.00;12.50;;;;;10.84;90.43;101043.06;146619;612;46012;-70
2023/03/03 04:33:45;;;;;;;;;15.00;14.50;;;;;10.89;90.43;101048.50;146619;587;46020;-70
2023/03/03 04:36:54;;;;;;;;;13.25;13.00;;;;;10.90;90.31;101044.19;146613;638;46014;-71
2023/03/03 04:39:57;;;;;;;;;11.25;10.25;;;;;10.89;90.36;101052.81;146616;626;46020;-70
2023/03/03 04:42:59;;;;;;;;;16.00;10.50;;;;;10.87;89.95;101055.28;146617;637;46034;-70
2023/03/03 04:46:03;;;;;;;;;15.25;12.00;;;;;10.84;90.09;101053.44;146618;639;46020;-71
2023/03/03 04:49:07;;;;;;;;;13.50;10.00;;;;;10.82;89.90;101049.88;146617;602;46012;-70
2023/03/03 04:52:08;;;;;;;;;15.25;13.75;;;;;10.82;90.38;101055.06;146618;625;46011;-74
2023/03/03 04:55:13;;;;;;;;;18.25;14.25;;;;;10.82;90.29;101057.66;146612;657;46016;-75
2023/03/03 04:58:21;;;;;;;;;10.75;9.25;;;;;8.71;89.94;100689.16;146617;588;46011;-76
2023/03/03 05:01:37;;;;;;;;;14.25;11.75;;;;;10.83;90.47;101063.72;146620;569;46016;-76
2023/03/03 05:04:51;;;;;;;;;10.00;9.25;;;;;8.73;89.78;100689.25;146617;569;46020;-76
2023/03/03 05:07:58;;;;;;;;;12.00;9.25;;;;;10.82;90.46;101054.16;146617;617;46014;-75
2023/03/03 05:11:00;;;;;;;;;14.75;11.75;;;;;10.81;90.74;101058.47;146617;681;46020;-74
2023/03/03 05:13:57;;;;;;;;;15.50;12.00;;;;;10.80;90.54;101064.44;146615;709;46013;-74
2023/03/03 05:16:52;;;;;;;;;13.75;11.75;;;;;10.80;90.62;101072.22;146617;612;47010;-74
2023/03/03 05:19:47;;;;;;;;;12.00;11.25;;;;;10.79;90.60;101065.25;146617;563;46916;-75
2023/03/03 05:22:53;;;;;;;;;12.00;10.50;;;;;10.88;90.93;101074.37;146618;612;46020;-72
2023/03/03 05:26:14;;;;;;;;;11.75;9.25;;;;;10.92;90.92;101082.41;146615;578;46029;-74
2023/03/03 05:29:35;;;;;;;;;15.25;13.00;;;;;8.90;90.75;100729.00;146621;588;46012;-74
2023/03/03 05:32:27;;;;;;;;;12.25;10.25;;;;;10.96;91.02;101081.75;146614;576;46016;-75
2023/03/03 05:35:23;;;;;;;;;14.75;13.50;;;;;10.98;90.79;101085.31;146621;581;45020;-78
2023/03/03 05:38:27;;;;;;;;;13.50;11.75;;;;;10.98;90.81;101087.94;146618;600;46014;-73
2023/03/03 05:41:35;;;;;;;;;15.25;13.75;;;;;11.02;90.73;101082.09;146618;563;46010;-75
2023/03/03 05:45:04;;;;;;;;;14.25;13.00;;;;;8.97;90.29;100723.38;146614;602;46013;-74
2023/03/03 05:48:03;;;;;;;;;13.50;11.75;;;;;11.09;90.87;101080.75;146619;563;46020;-76
2023/03/03 05:51:05;;;;;;;;;15.50;12.50;;;;;11.20;91.40;101089.09;146617;631;46016;-79
2023/03/03 05:54:22;;;;;;;;;13.25;12.50;;;;;11.25;91.23;101085.94;146618;615;46031;-75
2023/03/03 05:57:25;;;;;;;;;15.00;13.50;;;;;11.27;91.13;101083.44;146614;671;46017;-75
2023/03/03 06:00:38;;;;;;;;;14.50;13.75;;;;;11.38;91.50;101092.69;146618;602;47012;-74
2023/03/03 06:03:34;;;;;;;;;14.25;12.25;;;;;11.47;91.50;101093.19;146612;575;46016;-74
2023/03/03 06:06:39;;;;;;;;;17.25;17.25;;;;;11.53;91.90;101095.22;146613;584;47021;-77
2023/03/03 06:09:33;;;;;;;;;32.25;25.25;;;;;11.60;91.51;101094.72;146614;566;47012;-76
2023/03/03 06:12:36;;;;;;;;;24.25;21.25;;;;;11.63;91.54;101092.28;146609;570;46013;-77
2023/03/03 06:15:41;;;;;;;;;20.25;16.75;;;;;11.68;91.26;101096.03;146612;616;46016;-77
2023/03/03 06:18:34;;;;;;;;;25.00;19.00;;;;;11.74;91.37;101098.03;146613;605;46010;-78
2023/03/03 06:21:26;;;;;;;;;20.75;19.00;;;;;11.78;91.41;101100.91;146610;583;46017;-78
2023/03/03 06:24:29;;;;;;;;;23.25;18.75;;;;;11.81;90.76;101102.78;146615;600;46010;-78
2023/03/03 06:27:48;;;;;;;;;20.75;19.50;;;;;11.83;90.70;101093.31;146611;629;46013;-77
2023/03/03 06:31:06;;;;;;;;;21.00;16.25;;;;;11.90;90.62;101103.28;146614;570;46010;-76
2023/03/03 06:34:11;;;;;;;;;19.00;16.75;;;;;10.01;91.07;100756.78;146616;582;46012;-79
2023/03/03 06:37:13;;;;;;;;;22.50;19.50;;;;;12.19;91.95;101104.75;146617;565;46021;-75
2023/03/03 06:40:21;;;;;;;;;22.25;18.75;;;;;12.50;92.74;101110.63;146611;626;46016;-74
2023/03/03 06:43:41;;;;;;;;;;;;;;;;;;;;;
2023/03/03 06:46:52;;;;;;;;;20.00;17.00;;;;;12.92;88.36;101115.28;146612;587;46012;-75
2023/03/03 06:49:48;;;;;;;;;19.00;17.25;;;;;12.92;86.42;101115.28;146616;564;46010;-74
2023/03/03 06:52:54;;;;;;;;;32.25;28.00;;;;;12.88;85.13;101118.56;146612;608;46017;-75
2023/03/03 06:55:53;;;;;;;;;28.25;24.00;;;;;12.84;84.68;101118.34;146614;597;46020;-77
2023/03/03 06:59:02;;;;;;;;;;;;;;;;;;;;;
2023/03/03 07:02:21;;;;;;;;;25.75;22.75;;;;;12.87;85.04;101122.00;146615;566;46026;-76
2023/03/03 07:05:22;;;;;;;;;21.25;18.75;;;;;12.91;85.57;101126.53;146611;576;46017;-76
2023/03/03 07:08:29;;;;;;;;;28.50;24.00;;;;;12.94;85.97;101116.25;146614;586;46020;-77
2023/03/03 07:12:28;;;;;;;;;;;;;;;;;;;;;
2023/03/03 07:15:46;;;;;;;;;22.25;20.00;;;;;11.25;84.45;100809.91;146614;565;46010;-74
2023/03/03 07:19:29;;;;;;;;;;;;;;;;;;;;;
2023/03/03 07:22:39;;;;;;;;;18.00;15.25;;;;;13.24;85.19;101122.81;146614;634;46021;-73
2023/03/03 07:25:38;;;;;;;;;18.75;15.75;;;;;13.32;83.82;101122.41;146613;592;46012;-73
2023/03/03 07:29:01;;;;;;;;;23.00;19.25;;;;;13.37;82.86;101120.03;146614;681;46020;-73
2023/03/03 07:32:17;;;;;;;;;18.00;16.75;;;;;13.43;82.35;101127.22;146612;564;46016;-75
2023/03/03 07:35:56;;;;;;;;;22.00;18.75;;;;;11.45;81.95;100759.84;146615;591;45023;-75
2023/03/03 07:39:31;;;;;;;;;15.75;15.00;;;;;11.34;81.79;100755.84;146611;579;46016;-72
2023/03/03 07:42:54;;;;;;;;;15.25;13.25;;;;;13.38;82.14;101108.78;146615;592;46046;-71
2023/03/03 07:45:50;;;;;;;;;20.75;15.00;;;;;13.38;82.39;101109.66;146612;577;46014;-71
2023/03/03 07:49:10;;;;;;;;;22.50;19.50;;;;;11.34;82.77;100755.84;146618;566;46020;-71
2023/03/03 07:52:36;;;;;;;;;17.25;13.00;;;;;11.55;84.67;100785.44;146613;575;46012;-71
2023/03/03 07:55:46;;;;;;;;;12.50;11.50;;;;;13.58;85.05;101112.28;146616;702;46020;-73
2023/03/03 07:58:48;;;;;;;;;15.25;14.00;;;;;13.61;84.18;101110.72;146611;583;46017;-75
2023/03/03 08:02:04;;;;;;;;;17.50;11.75;;;;;11.62;82.09;100784.03;146618;573;46010;-76
2023/03/03 08:04:59;;;;;;;;;12.75;10.00;;;;;13.45;82.71;101129.06;146618;617;46013;-74
2023/03/03 08:08:16;;;;;;;;;13.00;8.75;;;;;13.36;82.46;101131.25;146617;684;46020;-72
2023/03/03 08:11:28;;;;;;;;;11.50;11.25;;;;;13.27;83.93;101123.94;146617;600;47015;-76
2023/03/03 08:14:48;;;;;;;;;8.00;7.00;;;;;13.45;85.11;101134.28;146619;653;45042;-73
2023/03/03 08:17:53;;;;;;;;;9.00;6.75;;;;;13.83;84.24;101128.22;146618;593;46015;-74
2023/03/03 08:21:00;;;;;;;;;14.75;13.00;;;;;14.39;84.34;101127.97;146620;671;46021;-79
2023/03/03 08:24:13;;;;;;;;;9.75;9.25;;;;;13.10;80.05;100808.06;146616;597;46014;-74
2023/03/03 08:27:19;;;;;;;;;11.75;10.25;;;;;15.28;77.96;101126.38;146615;604;46912;-75
2023/03/03 08:30:42;;;;;;;;;10.75;8.00;;;;;15.69;77.99;101125.34;146616;692;46016;-72
2023/03/03 08:33:44;;;;;;;;;4.75;4.75;;;;;15.89;72.22;101129.59;146620;564;46020;-70
2023/03/03 08:36:48;;;;;;;;;7.25;5.25;;;;;15.85;73.84;101127.69;146620;665;46025;-70
2023/03/03 08:39:50;;;;;;;;;5.75;4.75;;;;;15.88;73.48;101129.53;146620;656;46020;-70
2023/03/03 08:42:50;;;;;;;;;3.25;3.25;;;;;15.90;73.28;101131.38;146616;584;46016;-71
2023/03/03 08:46:00;;;;;;;;;2.75;0.00;;;;;15.86;71.87;101131.22;146622;563;46020;-73
2023/03/03 08:48:52;;;;;;;;;3.25;3.00;;;;;14.97;71.80;100985.06;146617;564;46017;-71
2023/03/03 08:52:10;;;;;;;;;9.25;8.00;;;;;14.71;71.52;100983.19;146618;636;46020;-71
2023/03/03 08:55:22;;;;;;;;;3.25;3.00;;;;;15.45;69.96;101126.19;146620;565;46018;-71
2023/03/03 08:58:40;;;;;;;;;;;;;;;;;;;;;
2023/03/03 09:01:38;;;;;;;;;2.00;2.00;;;;;15.63;70.78;101132.94;146618;675;46016;-71
2023/03/03 09:04:32;;;;;;;;;7.75;6.75;;;;;15.93;70.65;101118.41;146620;585;46020;-71
2023/03/03 09:07:32;;;;;;;;;8.00;5.75;;;;;16.34;69.73;101121.56;146620;649;46012;-71
2023/03/03 09:10:42;;;;;;;;;1.00;1.00;;;;;16.68;69.42;101121.81;146621;564;46020;-71
2023/03/03 09:13:58;;;;;;;;;2.00;2.00;;;;;16.93;66.12;101116.56;146618;613;46017;-71
2023/03/03 09:17:05;;;;;;;;;2.25;2.00;;;;;17.19;63.23;101124.31;146622;679;46010;-71
2023/03/03 09:20:17;;;;;;;;;3.25;2.00;;;;;17.38;64.14;101115.28;146617;574;47013;-71
2023/03/03 09:23:53;;;;;;;;;1.33;1.33;;;;;17.57;66.99;101116.72;146619;591;46020;-71
2023/03/03 09:26:54;;;;;;;;;4.00;4.00;;;;;17.76;65.46;101112.06;146619;643;46014;-71
2023/03/03 09:29:54;;;;;;;;;5.00;5.00;;;;;17.88;66.00;101116.81;146623;619;46020;-71
2023/03/03 09:33:24;;;;;;;;;6.00;5.00;;;;;16.36;66.40;100813.72;146617;613;46016;-70
2023/03/03 09:36:45;;;;;;;;;4.33;3.00;;;;;18.37;62.51;101099.72;146622;634;46012;-71
2023/03/03 09:39:54;;;;;;;;;3.00;2.67;;;;;18.32;61.09;101100.47;146617;602;46016;-72
2023/03/03 09:43:37;;;;;;;;;3.67;3.00;;;;;16.31;64.34;100822.28;146622;568;47010;-71
2023/03/03 09:47:21;;;;;;;;;1.00;1.00;;;;;15.85;66.47;100805.19;146620;641;46021;-69
2023/03/03 09:51:12;;;;;;;;;2.00;2.00;;;;;16.55;68.21;100953.00;146625;585;46010;-72
2023/03/03 09:55:04;;;;;;;;;1.67;1.00;;;;;15.29;64.59;100668.38;146621;589;46012;-71
2023/03/03 09:59:11;;;;;;;;;2.67;1.33;;;;;16.48;65.37;100805.34;146615;563;46023;-76
2023/03/03 10:02:40;;;;;;;;;7.00;7.00;;;;;18.22;64.90;101097.59;146620;642;46017;-70
2023/03/03 10:06:19;;;;;;;;;5.00;3.33;;;;;16.65;63.93;100818.88;146621;631;46031;-73
2023/03/03 10:10:06;;;;;;;;;4.00;3.00;;;;;16.74;66.50;100810.41;146618;590;46017;-73
2023/03/03 10:13:41;;;;;;;;;2.67;1.33;;;;;18.39;59.30;101094.50;146624;569;47010;-73
2023/03/03 10:17:12;;;;;;;;;3.00;1.00;;;;;18.35;63.16;101092.62;146618;598;46914;-72
2023/03/03 10:20:46;;;;;;;;;1.00;1.00;;;;;18.57;59.80;101096.72;146621;634;46010;-73
2023/03/03 10:24:41;;;;;;;;;1.00;1.00;;;;;17.11;64.07;100806.19;146621;576;46012;-72
2023/03/03 10:28:32;;;;;;;;;2.00;2.00;;;;;17.19;62.77;100833.47;146623;570;46020;-77
2023/03/03 10:32:37;;;;;;;;;9.00;4.67;;;;;16.61;64.16;100747.25;146616;678;46017;-82
2023/03/03 10:36:21;;;;;;;;;8.00;6.33;;;;;16.22;65.69;100780.13;146622;594;46010;-78
2023/03/03 10:40:09;;;;;;;;;5.33;5.33;;;;;15.81;65.72;100764.97;146619;587;46915;-82
2023/03/03 10:44:00;;;;;;;;;8.25;5.75;;;;;16.33;66.57;100865.97;146620;606;47012;-80
2023/03/03 10:47:47;;;;;;;;;5.67;4.67;;;;;17.72;65.18;101078.69;146618;570;46016;-80
2023/03/03 10:51:39;;;;;;;;;6.33;5.33;;;;;16.21;66.24;100776.63;146621;612;46010;-79
2023/03/03 10:55:15;;;;;;;;;4.00;4.00;;;;;17.73;64.69;101072.62;146618;704;46017;-80
2023/03/03 10:59:04;;;;;;;;;9.00;6.50;;;;;17.50;65.12;101068.47;146619;574;46038;-82
2023/03/03 11:03:00;;;;;;;;;7.25;6.00;;;;;15.47;64.36;100731.66;146619;616;46017;-81
2023/03/03 11:06:40;;;;;;;;;7.00;4.33;;;;;16.68;67.19;100894.03;146620;599;46020;-79
2023/03/03 11:10:12;;;;;;;;;7.33;5.33;;;;;17.86;64.74;101044.16;146620;602;46016;-80
2023/03/03 11:13:46;;;;;;;;;7.00;7.00;;;;;15.82;64.71;100643.84;146618;617;46020;-82
2023/03/03 11:17:37;;;;;;;;;5.00;4.00;;;;;16.71;63.09;100737.91;146619;564;46014;-78
2023/03/03 11:21:12;;;;;;;;;6.00;4.00;;;;;18.79;61.28;101032.47;146620;690;46020;-79
2023/03/03 11:25:12;;;;;;;;;;;;;;;;;;;;;
2023/03/03 11:28:37;;;;;;;;;9.00;6.25;;;;;18.61;58.23;101027.63;146622;646;46010;-80
2023/03/03 11:32:24;;;;;;;;;14.00;10.75;;;;;16.69;61.05;100749.16;146618;629;46912;-80
2023/03/03 11:36:11;;;;;;;;;7.75;6.75;;;;;17.14;61.75;100869.16;146614;634;47010;-80
2023/03/03 11:39:19;;;;;;;;;5.50;4.25;;;;;17.73;59.58;101022.78;146617;605;47012;-80
2023/03/03 11:43:00;;;;;;;;;4.00;4.00;;;;;17.45;65.36;101018.53;146620;567;46022;-80
2023/03/03 11:46:21;;;;;;;;;8.25;6.00;;;;;17.61;64.38;101004.09;146617;632;46017;-78
2023/03/03 11:49:37;;;;;;;;;3.00;3.00;;;;;17.75;62.51;101000.09;146619;577;46020;-81
2023/03/03 11:53:07;;;;;;;;;5.25;5.25;;;;;16.17;61.60;100704.16;146620;573;46015;-79
2023/03/03 11:56:56;;;;;;;;;6.25;4.25;;;;;16.30;61.64;100681.81;146620;579;46010;-79
2023/03/03 12:00:28;;;;;;;;;3.00;3.00;;;;;16.77;60.42;100721.50;146619;587;46032;-79
2023/03/03 12:04:23;;;;;;;;;6.25;5.25;;;;;18.33;57.51;100982.34;146623;581;46010;-81
2023/03/03 12:08:00;;;;;;;;;5.00;4.33;;;;;18.40;56.85;100984.25;146617;615;46016;-79
2023/03/03 12:11:52;;;;;;;;;4.33;3.00;;;;;16.89;59.32;100705.22;146623;579;46020;-79
2023/03/03 12:15:26;;;;;;;;;3.33;2.00;;;;;18.42;61.22;100972.06;146617;613;46017;-80
2023/03/03 12:19:10;;;;;;;;;1.00;1.00;;;;;18.48;61.61;100962.56;146620;602;46010;-79
2023/03/03 12:22:47;;;;;;;;;4.00;2.00;;;;;17.26;60.78;100790.88;146621;636;46012;-79
2023/03/03 12:26:33;;;;;;;;;4.00;4.00;;;;;16.63;59.74;100677.50;146622;572;46010;-79
2023/03/03 12:30:17;;;;;;;;;4.67;3.00;;;;;16.39;55.91;100674.22;146617;582;46012;-80
2023/03/03 12:34:00;;;;;;;;;2.00;1.00;;;;;17.97;61.36;100979.69;146621;595;46020;-81
2023/03/03 12:37:39;;;;;;;;;5.33;3.00;;;;;16.21;56.01;100664.13;146621;608;46016;-81
2023/03/03 12:41:00;;;;;;;;;3.00;3.00;;;;;17.75;57.43;100973.00;146621;677;46010;-79
2023/03/03 12:44:50;;;;;;;;;3.75;3.75;;;;;15.45;59.14;100652.31;146618;628;46016;-82
2023/03/03 12:48:20;;;;;;;;;;;;;;;;;;;;;
2023/03/03 12:52:02;;;;;;;;;5.33;1.67;;;;;14.71;60.52;100639.56;146619;573;46016;-82
2023/03/03 12:55:32;;;;;;;;;9.00;5.33;;;;;16.65;62.04;100936.72;146623;597;46010;-81
2023/03/03 12:59:05;;;;;;;;;8.25;6.50;;;;;16.88;60.51;100937.41;146621;575;46012;-80
2023/03/03 13:02:41;;;;;;;;;2.00;2.00;;;;;17.09;59.86;100940.62;146623;600;46010;-79
2023/03/03 13:06:29;;;;;;;;;3.33;3.33;;;;;15.09;64.29;100545.87;146620;560;46012;-82
2023/03/03 13:10:22;;;;;;;;;4.33;4.00;;;;;16.72;63.72;100776.31;146622;616;46010;-81
2023/03/03 13:13:57;;;;;;;;;3.00;2.33;;;;;17.95;58.45;100945.56;146618;585;46016;-80
2023/03/03 13:17:49;;;;;;;;;;;;;;;;;;;;;
2023/03/03 13:21:14;;;;;;;;;3.67;3.67;;;;;17.58;55.36;100938.47;146617;594;46029;-80
2023/03/03 13:24:31;;;;;;;;;2.33;2.00;;;;;17.32;59.84;100953.53;146614;575;48010;-78
2023/03/03 13:27:31;;;;;;;;;4.00;1.00;;;;;17.07;58.13;100955.44;146619;563;46016;-79
2023/03/03 13:30:53;;;;;;;;;3.33;1.33;;;;;16.87;59.56;100951.34;146621;595;46021;-86
2023/03/03 13:33:57;;;;;;;;;1.00;1.00;;;;;16.75;59.95;100949.25;146619;573;46016;-83
2023/03/03 13:37:35;;;;;;;;;2.67;1.67;;;;;15.12;62.26;100647.84;146622;599;46020;-84
2023/03/03 13:41:00;;;;;;;;;4.33;3.00;;;;;14.88;58.19;100614.00;146621;638;46012;-83
2023/03/03 13:44:14;;;;;;;;;2.00;2.00;;;;;16.54;58.18;100927.63;146623;594;46021;-81
2023/03/03 13:47:38;;;;;;;;;1.67;0.67;;;;;16.35;60.83;100932.34;146617;565;46016;-81
2023/03/03 13:51:21;;;;;;;;;2.67;1.00;;;;;14.51;60.26;100636.25;146624;603;46010;-81
2023/03/03 13:55:02;;;;;;;;;2.00;1.67;;;;;16.06;61.09;100928.78;146613;575;47016;-78
2023/03/03 13:58:37;;;;;;;;;2.00;1.00;;;;;14.20;60.75;100628.19;146622;593;46020;-78
2023/03/03 14:02:14;;;;;;;;;2.00;1.00;;;;;15.80;57.26;100927.94;146619;654;46012;-93
2023/03/03 14:05:55;;;;;;;;;2.00;1.00;;;;;14.26;57.09;100693.59;146617;563;46012;-79
2023/03/03 14:09:29;;;;;;;;;1.00;1.00;;;;;15.58;59.57;100928.91;146617;632;46014;-80
2023/03/03 14:13:02;;;;;;;;;1.67;1.67;;;;;15.59;57.69;100932.41;146621;645;46010;-88
2023/03/03 14:16:39;;;;;;;;;3.33;2.33;;;;;13.59;59.92;100593.00;146622;579;46012;-80
2023/03/03 14:20:26;;;;;;;;;2.33;2.00;;;;;13.85;60.83;100613.06;146622;575;46014;-82
2023/03/03 14:24:02;;;;;;;;;0.33;0.00;;;;;15.96;59.55;100934.56;146616;585;47016;-80
2023/03/03 14:27:27;;;;;;;;;2.00;1.33;;;;;16.12;57.67;100938.56;146618;587;47010;-80
2023/03/03 14:30:31;;;;;;;;;2.33;1.00;;;;;16.22;56.80;100939.72;146618;564;46016;-80
2023/03/03 14:33:48;;;;;;;;;1.00;1.00;;;;;14.44;55.05;100629.03;146623;593;46020;-87
2023/03/03 14:36:58;;;;;;;;;1.67;0.33;;;;;16.22;55.37;100937.12;146620;581;46013;-81
2023/03/03 14:40:47;;;;;;;;;1.00;1.00;;;;;15.12;55.76;100760.13;146622;582;46020;-79
2023/03/03 14:44:11;;;;;;;;;1.00;1.00;;;;;15.94;58.58;100933.59;146619;679;46013;-83
2023/03/03 14:47:34;;;;;;;;;2.00;2.00;;;;;13.95;58.70;100603.84;146620;629;47010;-82
2023/03/03 14:51:11;;;;;;;;;4.33;2.33;;;;;15.72;58.94;100932.00;146620;567;46032;-80
2023/03/03 14:54:03;;;;;;;;;2.33;1.67;;;;;15.67;57.70;100930.97;146623;599;46010;-81
2023/03/03 14:57:53;;;;;;;;;2.33;2.33;;;;;13.76;58.28;100623.16;146619;569;46014;-82
2023/03/03 15:00:54;;;;;;;;;1.00;1.00;;;;;15.24;58.31;100925.13;146620;571;46021;-84
2023/03/03 15:04:13;;;;;;;;;0.67;0.67;;;;;15.01;58.56;100928.59;146618;598;46016;-82
2023/03/03 15:07:43;;;;;;;;;7.75;5.25;;;;;13.07;60.27;100604.88;146620;683;47011;-82
2023/03/03 15:11:05;;;;;;;;;4.33;1.67;;;;;14.85;59.73;100921.94;146616;571;46016;-81
2023/03/03 15:14:31;;;;;;;;;0.33;0.33;;;;;14.78;58.25;100918.22;146622;606;46020;-81
2023/03/03 15:17:44;;;;;;;;;3.00;3.00;;;;;14.71;60.69;100915.34;146619;652;46031;-83
2023/03/03 15:21:24;;;;;;;;;1.00;1.00;;;;;12.68;59.27;100592.09;146619;616;47020;-83
2023/03/03 15:25:04;;;;;;;;;0.67;0.67;;;;;13.14;61.75;100682.38;146616;649;46016;-85
2023/03/03 15:29:01;;;;;;;;;;;;;;;;;;;;;
2023/03/03 15:32:46;;;;;;;;;5.00;3.67;;;;;14.52;63.98;100913.75;146619;603;46912;-83
2023/03/03 15:36:21;;;;;;;;;2.00;0.00;;;;;12.41;65.07;100538.94;146624;570;46021;-83